罗盘
风向 的
风: 2 kt, 1 beaufort

添加一条跑道以查看侧风和逆风信息。

添置 跑道
0 1.000 2.000 3.000 4.000 5.000
CAVOK
METAR EDDS 152120Z AUTO VRB02KT CAVOK 17/12 Q1010

METAR Hülben Airfield - DE-0309

Hülben Airfield是Hülben,德国中的小机场。 视场标高为2.385 ft。 该领域的国际民航组织标志是DE-0309.

这份报告是针对2022年8月15日 23:20, 当地时间在Stuttgart Airport进行的。

机场观察

可变方向的风很小或没有风。

天气为CAVOK。这意味着在5.000 ft或MSA(最低安全高度)以下(以较高者为准)以下没有云。这也意味着没有观测到积雨云或高耸的积云,可见度为10 km 或者更多或更高。此外,不会有雾,降雨或其他重要天气。

温度和风寒是17 °C。 露点为12 °C,相对湿度为73%。 海平面上的气压为1010 hPa (QNH)。

白天

今天,太阳从06:16升起,在20:37降落。 这适用于Hülben Airfield,世界夏令时可能有所不同。 当地时间与世界标准时间之间的时差为+2 小时。 夏令时目前正在进行中。

公司介绍

我们没有关于这个机场的公司信息。

体会

到Vliegles.nl去找飞行课程,跳伞和其他飞行体验。 浏览页面,了解Hülben Airfield附近所有可用的活动。 你也可以使用搜索功能来寻找你所在地附近的特定飞行课程、跳伞或其他飞行体验。

温度 & 天气

温度 17 °C
露点 12 °C
相对湿度 73%
Kp-index 0  

白天

日出
06:16
中午
13:27
日落
20:38

小工具

你想在你的网站上有一个关于Hülben Airfield的当前航空天气(METAR)的小部件吗?

</> 显示HTML代码

我们和第三方通过cookies跟踪您在我们网站上的上网行为。如果您继续,我们认为您同意我们的cookie政策。 了解更多